Allen, Texas
Current Conditions -  °F | °C
As of 4:53 AM on Friday 31 Oct 2014 (Local Time) from KTKI Reporting Station
Clear Clear  
Wind Chill: 54°   Ceiling: Unl
Heat Index: 54°   Visibility: 10mi
Dew Point: 41°   Wind: 10mph
Humidity: 62%   Direction: 330°NNW
Pressure: 30.2"   Gusts: NA
Location:  33.1°N, 96.67°W
Report Text: KTKI 310953Z 33009KT 10SM CLR 12/05 A3020 RMK AO2 SLP229 T01220050
Loading
Personal Weather Stations






























Interactive Weather Map
Tropical Storm Tracking
New forecast layout! Learn more

10-Day Weather Forecast

Advertisements
Track Severe Weather on mobile